sensor_id;sensor_type;location;lat;lon;timestamp;P1;durP1;ratioP1;P2;durP2;ratioP2
68985;SDS011;56035;37.534;-122.308;2023-10-08T00:01:16;3.65;;;1.30;;
68985;SDS011;56035;37.534;-122.308;2023-10-08T00:03:43;5.63;;;1.30;;
68985;SDS011;56035;37.534;-122.308;2023-10-08T00:06:23;2.80;;;1.10;;
68985;SDS011;56035;37.534;-122.308;2023-10-08T00:08:50;4.82;;;1.20;;
68985;SDS011;56035;37.534;-122.308;2023-10-08T00:11:17;3.58;;;1.10;;
68985;SDS011;56035;37.534;-122.308;2023-10-08T00:13:43;5.18;;;1.33;;
68985;SDS011;56035;37.534;-122.308;2023-10-08T00:16:11;3.80;;;1.13;;
68985;SDS011;56035;37.534;-122.308;2023-10-08T00:18:42;2.97;;;1.10;;
68985;SDS011;56035;37.534;-122.308;2023-10-08T00:21:19;4.07;;;1.30;;
68985;SDS011;56035;37.534;-122.308;2023-10-08T00:23:58;1.98;;;1.00;;
68985;SDS011;56035;37.534;-122.308;2023-10-08T00:26:25;2.55;;;1.10;;
68985;SDS011;56035;37.534;-122.308;2023-10-08T00:29:02;2.85;;;1.15;;
68985;SDS011;56035;37.534;-122.308;2023-10-08T00:31:40;3.78;;;1.20;;
68985;SDS011;56035;37.534;-122.308;2023-10-08T00:34:10;2.20;;;1.10;;
68985;SDS011;56035;37.534;-122.308;2023-10-08T00:36:39;2.60;;;1.02;;
68985;SDS011;56035;37.534;-122.308;2023-10-08T00:39:09;4.22;;;1.40;;
68985;SDS011;56035;37.534;-122.308;2023-10-08T00:41:46;2.38;;;1.10;;
68985;SDS011;56035;37.534;-122.308;2023-10-08T00:44:13;2.17;;;1.20;;
68985;SDS011;56035;37.534;-122.308;2023-10-08T00:46:55;4.05;;;1.10;;
68985;SDS011;56035;37.534;-122.308;2023-10-08T00:49:32;3.58;;;1.20;;
68985;SDS011;56035;37.534;-122.308;2023-10-08T00:52:11;3.45;;;1.02;;
68985;SDS011;56035;37.534;-122.308;2023-10-08T00:54:39;2.58;;;1.20;;
68985;SDS011;56035;37.534;-122.308;2023-10-08T00:57:27;3.97;;;1.02;;
68985;SDS011;56035;37.534;-122.308;2023-10-08T01:00:02;3.13;;;1.20;;
68985;SDS011;56035;37.534;-122.308;2023-10-08T01:02:31;3.72;;;1.30;;
68985;SDS011;56035;37.534;-122.308;2023-10-08T01:05:16;2.75;;;0.98;;
68985;SDS011;56035;37.534;-122.308;2023-10-08T01:08:01;2.78;;;1.13;;
68985;SDS011;56035;37.534;-122.308;2023-10-08T01:10:37;4.40;;;1.30;;
68985;SDS011;56035;37.534;-122.308;2023-10-08T01:13:09;2.20;;;1.20;;
68985;SDS011;56035;37.534;-122.308;2023-10-08T01:15:46;2.35;;;1.08;;
68985;SDS011;56035;37.534;-122.308;2023-10-08T01:18:16;4.55;;;1.20;;
68985;SDS011;56035;37.534;-122.308;2023-10-08T01:20:54;1.80;;;1.02;;
68985;SDS011;56035;37.534;-122.308;2023-10-08T01:23:21;2.28;;;1.00;;
68985;SDS011;56035;37.534;-122.308;2023-10-08T01:25:52;2.08;;;1.00;;
68985;SDS011;56035;37.534;-122.308;2023-10-08T01:28:35;4.40;;;0.95;;
68985;SDS011;56035;37.534;-122.308;2023-10-08T01:31:02;3.83;;;1.20;;
68985;SDS011;56035;37.534;-122.308;2023-10-08T01:33:30;2.03;;;1.15;;
68985;SDS011;56035;37.534;-122.308;2023-10-08T01:36:19;2.30;;;1.00;;
68985;SDS011;56035;37.534;-122.308;2023-10-08T01:41:14;2.80;;;1.20;;
68985;SDS011;56035;37.534;-122.308;2023-10-08T01:43:51;2.13;;;1.10;;
68985;SDS011;56035;37.534;-122.308;2023-10-08T01:46:18;2.63;;;0.85;;
68985;SDS011;56035;37.534;-122.308;2023-10-08T01:48:47;4.75;;;1.00;;
68985;SDS011;56035;37.534;-122.308;2023-10-08T01:51:18;1.67;;;0.93;;
68985;SDS011;56035;37.534;-122.308;2023-10-08T01:53:54;2.10;;;0.90;;
68985;SDS011;56035;37.534;-122.308;2023-10-08T01:56:23;2.55;;;0.82;;
68985;SDS011;56035;37.534;-122.308;2023-10-08T01:58:50;3.42;;;1.10;;
68985;SDS011;56035;37.534;-122.308;2023-10-08T02:01:20;2.88;;;0.95;;
68985;SDS011;56035;37.534;-122.308;2023-10-08T02:03:46;2.35;;;0.80;;
68985;SDS011;56035;37.534;-122.308;2023-10-08T02:06:13;3.90;;;0.82;;
68985;SDS011;56035;37.534;-122.308;2023-10-08T02:11:06;1.98;;;0.70;;
68985;SDS011;56035;37.534;-122.308;2023-10-08T02:13:33;3.50;;;0.82;;
68985;SDS011;56035;37.534;-122.308;2023-10-08T02:16:00;3.38;;;0.80;;
68985;SDS011;56035;37.534;-122.308;2023-10-08T02:18:27;2.28;;;0.95;;
68985;SDS011;56035;37.534;-122.308;2023-10-08T02:20:54;3.40;;;1.05;;
68985;SDS011;56035;37.534;-122.308;2023-10-08T02:23:21;5.10;;;1.13;;
68985;SDS011;56035;37.534;-122.308;2023-10-08T02:25:47;4.03;;;1.10;;
68985;SDS011;56035;37.534;-122.308;2023-10-08T02:28:13;2.70;;;0.82;;
68985;SDS011;56035;37.534;-122.308;2023-10-08T02:30:47;2.25;;;0.77;;
68985;SDS011;56035;37.534;-122.308;2023-10-08T02:33:13;2.25;;;0.82;;
68985;SDS011;56035;37.534;-122.308;2023-10-08T02:35:44;2.10;;;0.70;;
68985;SDS011;56035;37.534;-122.308;2023-10-08T02:38:12;1.60;;;0.88;;
68985;SDS011;56035;37.534;-122.308;2023-10-08T02:40:41;1.90;;;0.70;;
68985;SDS011;56035;37.534;-122.308;2023-10-08T02:43:14;2.47;;;0.93;;
68985;SDS011;56035;37.534;-122.308;2023-10-08T02:45:41;2.40;;;0.93;;
68985;SDS011;56035;37.534;-122.308;2023-10-08T02:48:12;1.90;;;0.73;;
68985;SDS011;56035;37.534;-122.308;2023-10-08T02:50:39;1.52;;;0.70;;
68985;SDS011;56035;37.534;-122.308;2023-10-08T02:53:06;2.05;;;0.70;;
68985;SDS011;56035;37.534;-122.308;2023-10-08T02:55:43;3.78;;;1.00;;
68985;SDS011;56035;37.534;-122.308;2023-10-08T03:00:47;1.55;;;0.70;;
68985;SDS011;56035;37.534;-122.308;2023-10-08T03:03:15;1.83;;;0.70;;
68985;SDS011;56035;37.534;-122.308;2023-10-08T03:05:43;1.33;;;0.70;;
68985;SDS011;56035;37.534;-122.308;2023-10-08T03:08:14;3.88;;;0.90;;
68985;SDS011;56035;37.534;-122.308;2023-10-08T03:10:46;3.38;;;0.80;;
68985;SDS011;56035;37.534;-122.308;2023-10-08T03:13:21;2.08;;;0.85;;
68985;SDS011;56035;37.534;-122.308;2023-10-08T03:15:47;3.75;;;0.77;;
68985;SDS011;56035;37.534;-122.308;2023-10-08T03:18:26;2.08;;;0.70;;
68985;SDS011;56035;37.534;-122.308;2023-10-08T03:21:15;1.65;;;1.02;;
68985;SDS011;56035;37.534;-122.308;2023-10-08T03:24:08;6.35;;;2.15;;
68985;SDS011;56035;37.534;-122.308;2023-10-08T03:27:09;6.93;;;2.00;;
68985;SDS011;56035;37.534;-122.308;2023-10-08T03:29:45;7.47;;;2.50;;
68985;SDS011;56035;37.534;-122.308;2023-10-08T03:32:13;6.22;;;2.30;;
68985;SDS011;56035;37.534;-122.308;2023-10-08T03:34:44;6.47;;;2.58;;
68985;SDS011;56035;37.534;-122.308;2023-10-08T03:37:13;6.30;;;2.42;;
68985;SDS011;56035;37.534;-122.308;2023-10-08T03:39:49;8.98;;;2.72;;
68985;SDS011;56035;37.534;-122.308;2023-10-08T03:42:34;7.07;;;2.45;;
68985;SDS011;56035;37.534;-122.308;2023-10-08T03:45:05;7.55;;;2.65;;
68985;SDS011;56035;37.534;-122.308;2023-10-08T03:47:37;7.13;;;2.60;;
68985;SDS011;56035;37.534;-122.308;2023-10-08T03:50:07;8.25;;;2.63;;
68985;SDS011;56035;37.534;-122.308;2023-10-08T03:52:35;6.85;;;2.25;;
68985;SDS011;56035;37.534;-122.308;2023-10-08T03:55:08;6.18;;;2.58;;
68985;SDS011;56035;37.534;-122.308;2023-10-08T03:57:43;7.15;;;2.35;;
68985;SDS011;56035;37.534;-122.308;2023-10-08T04:00:13;6.78;;;1.95;;
68985;SDS011;56035;37.534;-122.308;2023-10-08T04:02:47;5.35;;;1.80;;
68985;SDS011;56035;37.534;-122.308;2023-10-08T04:05:23;4.15;;;1.48;;
68985;SDS011;56035;37.534;-122.308;2023-10-08T04:07:58;3.42;;;1.40;;
68985;SDS011;56035;37.534;-122.308;2023-10-08T04:10:24;4.57;;;1.30;;
68985;SDS011;56035;37.534;-122.308;2023-10-08T04:13:06;3.17;;;1.23;;
68985;SDS011;56035;37.534;-122.308;2023-10-08T04:15:37;3.75;;;1.50;;
68985;SDS011;56035;37.534;-122.308;2023-10-08T04:18:09;4.40;;;1.20;;
68985;SDS011;56035;37.534;-122.308;2023-10-08T04:20:38;4.65;;;1.50;;
68985;SDS011;56035;37.534;-122.308;2023-10-08T04:23:08;3.33;;;1.45;;
68985;SDS011;56035;37.534;-122.308;2023-10-08T04:25:46;4.68;;;1.55;;
68985;SDS011;56035;37.534;-122.308;2023-10-08T04:28:19;3.55;;;1.40;;
68985;SDS011;56035;37.534;-122.308;2023-10-08T04:30:47;5.07;;;1.63;;
68985;SDS011;56035;37.534;-122.308;2023-10-08T04:33:13;4.22;;;1.50;;
68985;SDS011;56035;37.534;-122.308;2023-10-08T04:35:43;6.85;;;1.65;;
68985;SDS011;56035;37.534;-122.308;2023-10-08T04:38:15;3.28;;;1.38;;
68985;SDS011;56035;37.534;-122.308;2023-10-08T04:40:47;5.00;;;1.60;;
68985;SDS011;56035;37.534;-122.308;2023-10-08T04:43:22;4.47;;;1.60;;
68985;SDS011;56035;37.534;-122.308;2023-10-08T04:46:03;5.63;;;1.90;;
68985;SDS011;56035;37.534;-122.308;2023-10-08T04:48:46;4.00;;;1.70;;
68985;SDS011;56035;37.534;-122.308;2023-10-08T04:51:12;4.65;;;1.35;;
68985;SDS011;56035;37.534;-122.308;2023-10-08T04:53:39;3.15;;;1.35;;
68985;SDS011;56035;37.534;-122.308;2023-10-08T04:56:10;5.75;;;1.50;;
68985;SDS011;56035;37.534;-122.308;2023-10-08T04:58:44;3.92;;;1.83;;
68985;SDS011;56035;37.534;-122.308;2023-10-08T05:01:14;4.43;;;1.30;;
68985;SDS011;56035;37.534;-122.308;2023-10-08T05:04:04;3.38;;;1.20;;
68985;SDS011;56035;37.534;-122.308;2023-10-08T05:09:00;3.85;;;1.30;;
68985;SDS011;56035;37.534;-122.308;2023-10-08T05:11:39;7.03;;;1.42;;
68985;SDS011;56035;37.534;-122.308;2023-10-08T05:14:23;3.40;;;1.65;;
68985;SDS011;56035;37.534;-122.308;2023-10-08T05:17:04;7.10;;;1.45;;
68985;SDS011;56035;37.534;-122.308;2023-10-08T05:19:38;5.53;;;1.90;;
68985;SDS011;56035;37.534;-122.308;2023-10-08T05:22:09;6.40;;;1.60;;
68985;SDS011;56035;37.534;-122.308;2023-10-08T05:24:46;3.22;;;1.42;;
68985;SDS011;56035;37.534;-122.308;2023-10-08T05:27:34;4.78;;;1.40;;
68985;SDS011;56035;37.534;-122.308;2023-10-08T05:30:27;4.57;;;1.60;;
68985;SDS011;56035;37.534;-122.308;2023-10-08T05:32:57;3.40;;;1.30;;
68985;SDS011;56035;37.534;-122.308;2023-10-08T05:38:09;3.37;;;1.63;;
68985;SDS011;56035;37.534;-122.308;2023-10-08T05:40:44;9.60;;;1.97;;
68985;SDS011;56035;37.534;-122.308;2023-10-08T05:43:34;4.20;;;1.70;;
68985;SDS011;56035;37.534;-122.308;2023-10-08T05:46:08;4.63;;;1.50;;
68985;SDS011;56035;37.534;-122.308;2023-10-08T05:48:55;4.40;;;1.60;;
68985;SDS011;56035;37.534;-122.308;2023-10-08T05:51:35;4.47;;;1.30;;
68985;SDS011;56035;37.534;-122.308;2023-10-08T05:54:30;4.13;;;1.30;;
68985;SDS011;56035;37.534;-122.308;2023-10-08T05:57:00;5.07;;;1.50;;
68985;SDS011;56035;37.534;-122.308;2023-10-08T05:59:37;2.70;;;1.33;;
68985;SDS011;56035;37.534;-122.308;2023-10-08T06:02:18;3.90;;;1.50;;
68985;SDS011;56035;37.534;-122.308;2023-10-08T06:04:54;3.70;;;1.20;;
68985;SDS011;56035;37.534;-122.308;2023-10-08T06:07:41;3.57;;;1.40;;
68985;SDS011;56035;37.534;-122.308;2023-10-08T06:10:18;2.80;;;1.20;;
68985;SDS011;56035;37.534;-122.308;2023-10-08T06:13:02;4.03;;;1.23;;
68985;SDS011;56035;37.534;-122.308;2023-10-08T06:15:37;3.90;;;1.20;;
68985;SDS011;56035;37.534;-122.308;2023-10-08T06:18:10;3.17;;;1.20;;
68985;SDS011;56035;37.534;-122.308;2023-10-08T06:20:38;2.63;;;1.17;;
68985;SDS011;56035;37.534;-122.308;2023-10-08T06:23:15;3.77;;;1.60;;
68985;SDS011;56035;37.534;-122.308;2023-10-08T06:25:53;3.20;;;1.47;;
68985;SDS011;56035;37.534;-122.308;2023-10-08T06:28:22;3.30;;;1.20;;
68985;SDS011;56035;37.534;-122.308;2023-10-08T06:30:52;4.30;;;1.43;;
68985;SDS011;56035;37.534;-122.308;2023-10-08T06:33:21;2.57;;;1.10;;
68985;SDS011;56035;37.534;-122.308;2023-10-08T06:35:48;4.23;;;1.40;;
68985;SDS011;56035;37.534;-122.308;2023-10-08T06:38:33;4.30;;;1.50;;
68985;SDS011;56035;37.534;-122.308;2023-10-08T06:43:35;5.13;;;1.20;;
68985;SDS011;56035;37.534;-122.308;2023-10-08T06:46:02;3.23;;;1.33;;
68985;SDS011;56035;37.534;-122.308;2023-10-08T06:48:32;4.13;;;1.20;;
68985;SDS011;56035;37.534;-122.308;2023-10-08T06:51:00;5.07;;;1.20;;
68985;SDS011;56035;37.534;-122.308;2023-10-08T06:53:39;3.43;;;1.40;;
68985;SDS011;56035;37.534;-122.308;2023-10-08T06:56:10;3.30;;;1.30;;
68985;SDS011;56035;37.534;-122.308;2023-10-08T06:58:41;4.80;;;1.50;;
68985;SDS011;56035;37.534;-122.308;2023-10-08T07:01:13;2.90;;;1.00;;
68985;SDS011;56035;37.534;-122.308;2023-10-08T07:03:53;3.17;;;1.30;;
68985;SDS011;56035;37.534;-122.308;2023-10-08T07:06:29;2.33;;;1.37;;
68985;SDS011;56035;37.534;-122.308;2023-10-08T07:09:05;2.47;;;1.30;;
68985;SDS011;56035;37.534;-122.308;2023-10-08T07:11:39;2.87;;;1.20;;
68985;SDS011;56035;37.534;-122.308;2023-10-08T07:14:09;4.27;;;1.30;;
68985;SDS011;56035;37.534;-122.308;2023-10-08T07:16:36;4.45;;;1.30;;
68985;SDS011;56035;37.534;-122.308;2023-10-08T07:19:02;3.85;;;1.42;;
68985;SDS011;56035;37.534;-122.308;2023-10-08T07:21:40;2.70;;;1.27;;
68985;SDS011;56035;37.534;-122.308;2023-10-08T07:24:13;5.07;;;1.40;;
68985;SDS011;56035;37.534;-122.308;2023-10-08T07:26:47;3.33;;;1.10;;
68985;SDS011;56035;37.534;-122.308;2023-10-08T07:29:15;4.23;;;1.40;;
68985;SDS011;56035;37.534;-122.308;2023-10-08T07:31:43;2.00;;;1.20;;
68985;SDS011;56035;37.534;-122.308;2023-10-08T07:34:18;2.43;;;1.00;;
68985;SDS011;56035;37.534;-122.308;2023-10-08T07:36:51;3.30;;;1.50;;
68985;SDS011;56035;37.534;-122.308;2023-10-08T07:39:20;2.50;;;1.07;;
68985;SDS011;56035;37.534;-122.308;2023-10-08T07:41:53;4.47;;;1.93;;
68985;SDS011;56035;37.534;-122.308;2023-10-08T07:44:20;3.37;;;1.37;;
68985;SDS011;56035;37.534;-122.308;2023-10-08T07:46:51;3.50;;;1.40;;
68985;SDS011;56035;37.534;-122.308;2023-10-08T07:49:21;4.17;;;1.20;;
68985;SDS011;56035;37.534;-122.308;2023-10-08T07:51:51;4.13;;;1.30;;
68985;SDS011;56035;37.534;-122.308;2023-10-08T07:56:45;6.87;;;2.07;;
68985;SDS011;56035;37.534;-122.308;2023-10-08T07:59:13;6.03;;;1.70;;
68985;SDS011;56035;37.534;-122.308;2023-10-08T08:01:42;4.00;;;1.60;;
68985;SDS011;56035;37.534;-122.308;2023-10-08T08:04:09;4.67;;;1.50;;
68985;SDS011;56035;37.534;-122.308;2023-10-08T08:06:37;4.30;;;1.40;;
68985;SDS011;56035;37.534;-122.308;2023-10-08T08:09:04;6.40;;;1.40;;
68985;SDS011;56035;37.534;-122.308;2023-10-08T08:11:45;4.23;;;1.60;;
68985;SDS011;56035;37.534;-122.308;2023-10-08T08:14:12;4.23;;;1.60;;
68985;SDS011;56035;37.534;-122.308;2023-10-08T08:16:43;5.33;;;1.40;;
68985;SDS011;56035;37.534;-122.308;2023-10-08T08:19:14;4.07;;;1.60;;
68985;SDS011;56035;37.534;-122.308;2023-10-08T08:21:59;4.20;;;1.47;;
68985;SDS011;56035;37.534;-122.308;2023-10-08T08:24:28;3.20;;;1.30;;
68985;SDS011;56035;37.534;-122.308;2023-10-08T08:26:57;4.13;;;1.40;;
68985;SDS011;56035;37.534;-122.308;2023-10-08T08:29:27;8.20;;;1.83;;
68985;SDS011;56035;37.534;-122.308;2023-10-08T08:31:54;4.40;;;1.63;;
68985;SDS011;56035;37.534;-122.308;2023-10-08T08:34:22;4.43;;;1.50;;
68985;SDS011;56035;37.534;-122.308;2023-10-08T08:36:49;4.90;;;1.60;;
68985;SDS011;56035;37.534;-122.308;2023-10-08T08:39:16;4.13;;;1.80;;
68985;SDS011;56035;37.534;-122.308;2023-10-08T08:42:00;3.70;;;1.60;;
68985;SDS011;56035;37.534;-122.308;2023-10-08T08:44:27;7.00;;;1.70;;
68985;SDS011;56035;37.534;-122.308;2023-10-08T08:47:00;4.50;;;1.60;;
68985;SDS011;56035;37.534;-122.308;2023-10-08T08:49:33;2.90;;;1.50;;
68985;SDS011;56035;37.534;-122.308;2023-10-08T08:52:02;3.63;;;1.30;;
68985;SDS011;56035;37.534;-122.308;2023-10-08T08:54:29;3.38;;;1.50;;
68985;SDS011;56035;37.534;-122.308;2023-10-08T08:57:01;4.57;;;2.10;;
68985;SDS011;56035;37.534;-122.308;2023-10-08T08:59:40;4.30;;;1.37;;
68985;SDS011;56035;37.534;-122.308;2023-10-08T09:02:20;3.50;;;1.70;;
68985;SDS011;56035;37.534;-122.308;2023-10-08T09:04:48;2.10;;;1.30;;
68985;SDS011;56035;37.534;-122.308;2023-10-08T09:09:40;4.70;;;1.63;;
68985;SDS011;56035;37.534;-122.308;2023-10-08T09:12:10;2.77;;;1.43;;
68985;SDS011;56035;37.534;-122.308;2023-10-08T09:14:36;5.25;;;1.40;;
68985;SDS011;56035;37.534;-122.308;2023-10-08T09:17:06;2.90;;;1.50;;
68985;SDS011;56035;37.534;-122.308;2023-10-08T09:19:36;3.47;;;1.50;;
68985;SDS011;56035;37.534;-122.308;2023-10-08T09:22:10;5.20;;;1.50;;
68985;SDS011;56035;37.534;-122.308;2023-10-08T09:24:38;7.50;;;2.43;;
68985;SDS011;56035;37.534;-122.308;2023-10-08T09:27:06;3.07;;;1.40;;
68985;SDS011;56035;37.534;-122.308;2023-10-08T09:29:36;3.60;;;1.73;;
68985;SDS011;56035;37.534;-122.308;2023-10-08T09:32:05;4.03;;;1.63;;
68985;SDS011;56035;37.534;-122.308;2023-10-08T09:34:34;7.47;;;1.70;;
68985;SDS011;56035;37.534;-122.308;2023-10-08T09:37:01;3.57;;;1.60;;
68985;SDS011;56035;37.534;-122.308;2023-10-08T09:39:33;6.57;;;2.10;;
68985;SDS011;56035;37.534;-122.308;2023-10-08T09:42:00;6.60;;;1.98;;
68985;SDS011;56035;37.534;-122.308;2023-10-08T09:47:03;4.10;;;2.10;;
68985;SDS011;56035;37.534;-122.308;2023-10-08T09:49:47;3.63;;;2.00;;
68985;SDS011;56035;37.534;-122.308;2023-10-08T09:52:20;4.27;;;1.87;;
68985;SDS011;56035;37.534;-122.308;2023-10-08T09:55:02;6.43;;;1.83;;
68985;SDS011;56035;37.534;-122.308;2023-10-08T09:57:35;5.27;;;1.70;;
68985;SDS011;56035;37.534;-122.308;2023-10-08T10:00:04;6.37;;;1.87;;
68985;SDS011;56035;37.534;-122.308;2023-10-08T10:02:43;5.47;;;1.90;;
68985;SDS011;56035;37.534;-122.308;2023-10-08T10:05:18;4.30;;;2.00;;
68985;SDS011;56035;37.534;-122.308;2023-10-08T10:07:49;4.63;;;1.87;;
68985;SDS011;56035;37.534;-122.308;2023-10-08T10:10:25;6.35;;;2.05;;
68985;SDS011;56035;37.534;-122.308;2023-10-08T10:13:04;4.13;;;1.50;;
68985;SDS011;56035;37.534;-122.308;2023-10-08T10:15:33;4.90;;;1.70;;
68985;SDS011;56035;37.534;-122.308;2023-10-08T10:21:36;3.67;;;1.63;;
68985;SDS011;56035;37.534;-122.308;2023-10-08T10:23:47;3.73;;;1.60;;
68985;SDS011;56035;37.534;-122.308;2023-10-08T10:26:33;5.77;;;2.00;;
68985;SDS011;56035;37.534;-122.308;2023-10-08T10:34:19;3.70;;;1.70;;
68985;SDS011;56035;37.534;-122.308;2023-10-08T10:36:47;5.80;;;2.07;;
68985;SDS011;56035;37.534;-122.308;2023-10-08T10:39:21;6.93;;;1.73;;
68985;SDS011;56035;37.534;-122.308;2023-10-08T10:41:59;5.50;;;2.03;;
68985;SDS011;56035;37.534;-122.308;2023-10-08T10:44:31;5.27;;;1.93;;
68985;SDS011;56035;37.534;-122.308;2023-10-08T10:47:02;5.23;;;1.60;;
68985;SDS011;56035;37.534;-122.308;2023-10-08T10:49:52;4.37;;;1.80;;
68985;SDS011;56035;37.534;-122.308;2023-10-08T10:52:27;8.87;;;2.43;;
68985;SDS011;56035;37.534;-122.308;2023-10-08T10:55:01;4.87;;;2.00;;
68985;SDS011;56035;37.534;-122.308;2023-10-08T11:00:42;6.87;;;1.90;;
68985;SDS011;56035;37.534;-122.308;2023-10-08T11:03:09;5.70;;;1.67;;
68985;SDS011;56035;37.534;-122.308;2023-10-08T11:05:43;4.30;;;1.90;;
68985;SDS011;56035;37.534;-122.308;2023-10-08T11:08:14;4.80;;;2.10;;
68985;SDS011;56035;37.534;-122.308;2023-10-08T11:10:43;5.23;;;2.10;;
68985;SDS011;56035;37.534;-122.308;2023-10-08T11:13:17;4.47;;;1.70;;
68985;SDS011;56035;37.534;-122.308;2023-10-08T11:15:46;4.80;;;1.97;;
68985;SDS011;56035;37.534;-122.308;2023-10-08T11:18:20;4.00;;;2.10;;
68985;SDS011;56035;37.534;-122.308;2023-10-08T11:20:49;4.23;;;2.30;;
68985;SDS011;56035;37.534;-122.308;2023-10-08T11:23:30;3.03;;;1.77;;
68985;SDS011;56035;37.534;-122.308;2023-10-08T11:26:01;3.83;;;1.73;;
68985;SDS011;56035;37.534;-122.308;2023-10-08T11:28:38;4.37;;;1.87;;
68985;SDS011;56035;37.534;-122.308;2023-10-08T11:31:11;5.10;;;1.80;;
68985;SDS011;56035;37.534;-122.308;2023-10-08T11:33:39;4.13;;;2.00;;
68985;SDS011;56035;37.534;-122.308;2023-10-08T11:36:07;5.20;;;1.80;;
68985;SDS011;56035;37.534;-122.308;2023-10-08T11:38:56;3.97;;;1.80;;
68985;SDS011;56035;37.534;-122.308;2023-10-08T11:41:32;4.33;;;2.33;;
68985;SDS011;56035;37.534;-122.308;2023-10-08T11:44:15;3.13;;;1.70;;
68985;SDS011;56035;37.534;-122.308;2023-10-08T11:46:45;4.37;;;2.00;;
68985;SDS011;56035;37.534;-122.308;2023-10-08T11:49:17;3.97;;;1.90;;
68985;SDS011;56035;37.534;-122.308;2023-10-08T11:51:44;5.17;;;1.80;;
68985;SDS011;56035;37.534;-122.308;2023-10-08T11:54:11;4.63;;;1.60;;
68985;SDS011;56035;37.534;-122.308;2023-10-08T11:56:39;3.80;;;1.77;;
68985;SDS011;56035;37.534;-122.308;2023-10-08T11:59:06;4.78;;;1.83;;
68985;SDS011;56035;37.534;-122.308;2023-10-08T12:01:36;4.50;;;1.80;;
68985;SDS011;56035;37.534;-122.308;2023-10-08T12:04:08;5.17;;;2.23;;
68985;SDS011;56035;37.534;-122.308;2023-10-08T12:06:43;3.57;;;1.83;;
68985;SDS011;56035;37.534;-122.308;2023-10-08T12:09:14;2.93;;;1.80;;
68985;SDS011;56035;37.534;-122.308;2023-10-08T12:11:40;5.18;;;1.90;;
68985;SDS011;56035;37.534;-122.308;2023-10-08T12:14:07;3.93;;;1.90;;
68985;SDS011;56035;37.534;-122.308;2023-10-08T12:16:35;7.17;;;2.17;;
68985;SDS011;56035;37.534;-122.308;2023-10-08T12:19:04;5.47;;;1.70;;
68985;SDS011;56035;37.534;-122.308;2023-10-08T12:21:41;3.42;;;1.90;;
68985;SDS011;56035;37.534;-122.308;2023-10-08T12:24:11;6.87;;;2.40;;
68985;SDS011;56035;37.534;-122.308;2023-10-08T12:26:40;5.07;;;2.13;;
68985;SDS011;56035;37.534;-122.308;2023-10-08T12:29:11;7.73;;;2.00;;
68985;SDS011;56035;37.534;-122.308;2023-10-08T12:31:50;5.37;;;1.97;;
68985;SDS011;56035;37.534;-122.308;2023-10-08T12:34:18;4.40;;;2.57;;
68985;SDS011;56035;37.534;-122.308;2023-10-08T12:36:48;4.10;;;1.83;;
68985;SDS011;56035;37.534;-122.308;2023-10-08T12:39:15;4.90;;;1.93;;
68985;SDS011;56035;37.534;-122.308;2023-10-08T12:41:42;5.22;;;2.10;;
68985;SDS011;56035;37.534;-122.308;2023-10-08T12:44:10;4.17;;;1.93;;
68985;SDS011;56035;37.534;-122.308;2023-10-08T12:46:58;4.40;;;2.40;;
68985;SDS011;56035;37.534;-122.308;2023-10-08T12:49:25;4.45;;;2.08;;
68985;SDS011;56035;37.534;-122.308;2023-10-08T12:51:52;4.93;;;2.10;;
68985;SDS011;56035;37.534;-122.308;2023-10-08T12:54:19;5.18;;;2.47;;
68985;SDS011;56035;37.534;-122.308;2023-10-08T12:56:47;5.37;;;2.53;;
68985;SDS011;56035;37.534;-122.308;2023-10-08T12:59:14;3.55;;;2.05;;
68985;SDS011;56035;37.534;-122.308;2023-10-08T13:01:47;4.13;;;1.90;;
68985;SDS011;56035;37.534;-122.308;2023-10-08T13:04:19;4.00;;;2.17;;
68985;SDS011;56035;37.534;-122.308;2023-10-08T13:06:53;5.00;;;2.27;;
68985;SDS011;56035;37.534;-122.308;2023-10-08T13:09:26;5.80;;;2.00;;
68985;SDS011;56035;37.534;-122.308;2023-10-08T13:11:56;3.30;;;2.20;;
68985;SDS011;56035;37.534;-122.308;2023-10-08T13:14:25;5.47;;;2.50;;
68985;SDS011;56035;37.534;-122.308;2023-10-08T13:16:51;4.45;;;2.22;;
68985;SDS011;56035;37.534;-122.308;2023-10-08T13:19:21;5.87;;;2.20;;
68985;SDS011;56035;37.534;-122.308;2023-10-08T13:21:51;3.20;;;1.97;;
68985;SDS011;56035;37.534;-122.308;2023-10-08T13:24:18;6.80;;;2.35;;
68985;SDS011;56035;37.534;-122.308;2023-10-08T13:31:39;5.27;;;2.03;;
68985;SDS011;56035;37.534;-122.308;2023-10-08T13:34:06;5.95;;;2.80;;
68985;SDS011;56035;37.534;-122.308;2023-10-08T13:36:37;5.17;;;2.30;;
68985;SDS011;56035;37.534;-122.308;2023-10-08T13:39:05;4.37;;;2.40;;
68985;SDS011;56035;37.534;-122.308;2023-10-08T13:41:35;4.67;;;2.33;;
68985;SDS011;56035;37.534;-122.308;2023-10-08T13:44:03;5.20;;;2.30;;
68985;SDS011;56035;37.534;-122.308;2023-10-08T13:46:31;5.10;;;2.33;;
68985;SDS011;56035;37.534;-122.308;2023-10-08T13:49:01;4.90;;;2.33;;
68985;SDS011;56035;37.534;-122.308;2023-10-08T13:51:28;3.70;;;2.22;;
68985;SDS011;56035;37.534;-122.308;2023-10-08T13:53:57;4.32;;;2.40;;
68985;SDS011;56035;37.534;-122.308;2023-10-08T13:56:28;4.87;;;2.60;;
68985;SDS011;56035;37.534;-122.308;2023-10-08T13:59:00;5.20;;;2.40;;
68985;SDS011;56035;37.534;-122.308;2023-10-08T14:01:37;4.83;;;2.10;;
68985;SDS011;56035;37.534;-122.308;2023-10-08T14:04:12;6.60;;;2.83;;
68985;SDS011;56035;37.534;-122.308;2023-10-08T14:06:42;5.73;;;2.20;;
68985;SDS011;56035;37.534;-122.308;2023-10-08T14:09:13;5.33;;;2.40;;
68985;SDS011;56035;37.534;-122.308;2023-10-08T14:11:46;5.67;;;2.60;;
68985;SDS011;56035;37.534;-122.308;2023-10-08T14:14:15;8.30;;;2.70;;
68985;SDS011;56035;37.534;-122.308;2023-10-08T14:16:44;8.33;;;3.10;;
68985;SDS011;56035;37.534;-122.308;2023-10-08T14:19:17;6.67;;;2.80;;
68985;SDS011;56035;37.534;-122.308;2023-10-08T14:21:48;8.43;;;2.93;;
68985;SDS011;56035;37.534;-122.308;2023-10-08T14:24:16;5.37;;;2.60;;
68985;SDS011;56035;37.534;-122.308;2023-10-08T14:26:42;4.70;;;2.63;;
68985;SDS011;56035;37.534;-122.308;2023-10-08T14:29:09;6.72;;;2.70;;
68985;SDS011;56035;37.534;-122.308;2023-10-08T14:31:42;4.37;;;2.27;;
68985;SDS011;56035;37.534;-122.308;2023-10-08T14:34:14;6.93;;;2.67;;
68985;SDS011;56035;37.534;-122.308;2023-10-08T14:36:50;4.37;;;2.40;;
68985;SDS011;56035;37.534;-122.308;2023-10-08T14:39:35;5.27;;;2.13;;
68985;SDS011;56035;37.534;-122.308;2023-10-08T14:42:20;5.23;;;2.10;;
68985;SDS011;56035;37.534;-122.308;2023-10-08T14:45:05;6.33;;;2.70;;
68985;SDS011;56035;37.534;-122.308;2023-10-08T14:47:36;3.77;;;2.20;;
68985;SDS011;56035;37.534;-122.308;2023-10-08T14:50:03;6.33;;;2.40;;
68985;SDS011;56035;37.534;-122.308;2023-10-08T14:52:31;5.70;;;2.47;;
68985;SDS011;56035;37.534;-122.308;2023-10-08T14:54:58;4.50;;;2.30;;
68985;SDS011;56035;37.534;-122.308;2023-10-08T14:57:25;4.97;;;2.20;;
68985;SDS011;56035;37.534;-122.308;2023-10-08T14:59:52;4.63;;;2.63;;
68985;SDS011;56035;37.534;-122.308;2023-10-08T15:02:19;5.03;;;2.40;;
68985;SDS011;56035;37.534;-122.308;2023-10-08T15:04:45;5.03;;;2.08;;
68985;SDS011;56035;37.534;-122.308;2023-10-08T15:09:43;4.03;;;2.37;;
68985;SDS011;56035;37.534;-122.308;2023-10-08T15:12:15;4.87;;;2.53;;
68985;SDS011;56035;37.534;-122.308;2023-10-08T15:14:42;6.83;;;3.60;;
68985;SDS011;56035;37.534;-122.308;2023-10-08T15:17:08;7.82;;;4.10;;
68985;SDS011;56035;37.534;-122.308;2023-10-08T15:19:36;6.73;;;3.83;;